Latest Weather Observations for Yarrawonga

IDN60801

Issued at 7:35 am EST Wednesday 1 October 2014 (issued every 30 minutes, with the page automatically refreshed every 10 minutes)

About weather observations | Map of weather stations | Latest weather observations for NSW | Other Formats
Station Details ID: 081124 Name: YARRAWONGA Lat: -36.03 Lon: 146.03 Height: 128.9 m
Data from the previous 72 hours. | See also: Recent months at Yarrawonga
Date/Time
EST
Temp
°C
App
Temp
°C
Dew
Point
Rel
Hum
%
Delta-T
°C
Wind Press
QNH
hPa
Press
MSL
hPa
Rain
since 9 am
mm
Dir
 
Spd
km/h
Gust
km/h
Spd
kts
Gust
kts
01/07:30am 6.6 2.1 4.1 84 1.1 W 17 22 9 12 1022.3 1022.4 0.0
01/07:00am 5.3 1.0 3.5 88 0.8 W 15 19 8 10 1021.9 1022.0 0.0
01/06:30am 4.2 0.2 2.9 91 0.5 W 13 15 7 8 1021.4 1021.5 0.0
01/06:00am 3.6 -0.5 2.4 92 0.5 W 13 15 7 8 1021.0 1021.1 0.0
01/05:30am 3.8 -0.3 2.3 90 0.6 W 13 17 7 9 1020.4 1020.5 0.0
01/05:00am 4.0 -0.1 2.4 89 0.6 W 13 17 7 9 1019.9 1020.0 0.0
01/04:30am 4.1 -0.3 2.6 90 0.6 W 15 19 8 10 1019.5 1019.6 0.0
01/04:00am 4.4 0.4 2.6 88 0.7 W 13 19 7 10 1019.0 1019.1 0.0
01/03:30am 4.6 0.6 2.6 87 0.8 WSW 13 17 7 9 1018.5 1018.6 0.0
01/03:00am 5.4 1.1 3.4 87 0.8 W 15 19 8 10 1018.2 1018.3 0.0
01/02:30am 4.6 1.1 3.7 94 0.4 WSW 11 15 6 8 1017.9 1017.9 0.0
01/02:00am 4.9 1.5 4.0 94 0.4 WSW 11 13 6 7 1017.5 1017.5 0.0
01/01:30am 5.5 2.2 4.3 92 0.5 WSW 11 15 6 8 1017.4 1017.4 0.0
01/01:00am 6.8 3.2 5.1 89 0.8 WSW 13 17 7 9 1017.0 1017.0 0.0
01/12:30am 7.4 4.4 6.0 91 0.6 W 11 15 6 8 1016.7 1016.7 0.0
01/12:00am 7.6 4.6 6.1 90 0.7 W 11 13 6 7 1016.4 1016.4 0.0
 
Date/Time
EST
Temp
°C
App
Temp
°C
Dew
Point
Rel
Hum
%
Delta-T
°C
Wind Press
QNH
hPa
Press
MSL
hPa
Rain
since 9 am
mm
Dir
 
Spd
km/h
Gust
km/h
Spd
kts
Gust
kts
30/11:30pm 8.0 5.3 5.8 86 1.0 W 9 13 5 7 1016.0 1016.0 0.0
30/11:00pm 8.0 4.9 5.6 85 1.1 WSW 11 13 6 7 1015.7 1015.7 0.0
30/10:30pm 8.6 5.1 5.5 81 1.4 WSW 13 15 7 8 1015.3 1015.3 0.0
30/10:00pm 10.3 6.4 5.5 72 2.2 WSW 15 19 8 10 1015.2 1015.2 0.0
30/09:30pm 10.9 6.3 5.7 70 2.4 SW 19 26 10 14 1014.3 1014.4 0.0
30/09:00pm 11.1 5.8 6.6 74 2.1 SW 24 35 13 19 1013.4 1013.5 0.0
30/08:30pm 11.7 7.1 6.6 71 2.4 SW 20 30 11 16 1013.3 1013.4 0.0
30/08:00pm 12.4 6.2 7.7 73 2.3 SW 30 41 16 22 1013.1 1013.2 0.0
30/07:46pm 12.8 6.3 8.1 73 2.3 SW 32 50 17 27 1012.8 1012.9 0.0
30/07:30pm 14.2 7.3 7.3 63 3.4 WSW 33 48 18 26 1012.0 1012.1 0.0
30/07:00pm 15.3 8.0 8.8 65 3.3 WSW 37 52 20 28 1011.0 1011.0 0.0
30/06:30pm 16.8 7.8 8.8 59 4.1 WSW 46 67 25 36 1009.9 1009.9 0.0
30/06:04pm 18.7 9.7 8.7 52 5.2 WSW 46 65 25 35 1008.6 1008.6 0.0
30/06:00pm 19.1 9.2 8.4 50 5.6 WSW 50 65 27 35 1008.5 1008.5 0.0
30/05:48pm 22.4 15.7 5.8 34 8.4 W 30 52 16 28 1007.6 1007.6 0.0
30/05:30pm 22.7 18.2 6.9 36 8.2 WNW 20 35 11 19 1007.2 1007.2 0.0
30/05:00pm 23.2 17.4 6.1 33 8.8 WNW 26 41 14 22 1007.0 1007.0 0.0
30/04:30pm 23.8 16.7 5.7 31 9.2 WNW 32 50 17 27 1007.2 1007.2 0.0
30/04:00pm 24.2 17.3 6.5 32 9.2 NW 32 52 17 28 1007.3 1007.3 0.0
30/03:35pm 24.2 18.2 6.9 33 9.0 WNW 28 46 15 25 1007.4 1007.4 0.0
30/03:30pm 24.5 18.2 7.2 33 9.1 WNW 30 46 16 25 1007.4 1007.4 0.0
30/03:27pm 24.3 18.2 6.6 32 9.2 WNW 28 46 15 25 1007.4 1007.4 0.0
30/03:00pm 24.8 17.9 6.5 31 9.6 NW 32 46 17 25 1007.8 1007.8 0.0
30/02:30pm 24.4 18.8 7.1 33 9.1 NW 26 39 14 21 1008.3 1008.3 0.0
30/02:19pm 23.5 17.4 6.7 34 8.7 NW 28 48 15 26 1008.5 1008.5 0.0
30/02:00pm 23.4 17.5 7.5 36 8.4 NW 28 43 15 23 1008.9 1008.9 0.0
30/01:30pm 23.3 17.5 7.8 37 8.2 NNW 28 48 15 26 1009.4 1009.4 0.0
30/01:28pm 23.5 17.7 8.0 37 8.2 NNW 28 48 15 26 1009.4 1009.4 0.0
30/01:00pm 22.9 17.4 9.0 41 7.5 NNW 28 41 15 22 1010.0 1010.0 0.0
30/12:30pm 22.6 18.0 9.7 44 7.0 NNW 24 35 13 19 1010.2 1010.2 0.0
30/12:00pm 22.0 18.4 9.9 46 6.6 NNW 19 26 10 14 1010.9 1010.9 0.0
30/11:30am 21.3 17.9 9.2 46 6.5 NNW 17 28 9 15 1011.6 1011.7 0.0
30/11:00am 20.5 19.2 11.2 55 5.1 NW 9 15 5 8 1012.2 1012.3 0.0
30/10:30am 19.0 18.0 11.1 60 4.3 W 7 13 4 7 1012.5 1012.6 0.0
30/10:00am 18.1 16.7 11.0 63 3.9 W 9 17 5 9 1013.2 1013.3 0.0
30/09:30am 16.6 14.8 10.9 69 3.1 W 11 15 6 8 1013.4 1013.5 0.0
30/09:00am 15.3 12.6 11.7 79 2.0 WSW 17 20 9 11 1013.8 1013.9 0.0
30/08:30am 14.6 13.7 11.4 81 1.7 W 7 11 4 6 1013.4 1013.5 0.0
30/08:00am 13.7 12.7 10.9 83 1.5 NW 7 13 4 7 1013.4 1013.5 0.0
30/07:30am 12.7 12.3 11.1 90 0.8 NNE 4 7 2 4 1013.0 1013.1 0.0
30/07:00am 11.4 10.6 11.1 98 0.2 NE 6 9 3 5 1012.8 1012.9 0.0
30/06:30am 9.2 8.6 8.9 98 0.1 NE 2 7 1 4 1012.8 1012.9 0.0
30/06:00am 9.4 7.9 9.1 98 0.1 NNE 7 9 4 5 1012.5 1012.6 0.0
30/05:30am 8.7 7.2 8.4 98 0.1 NE 6 7 3 4 1012.2 1012.3 0.0
30/05:00am 8.1 6.5 7.8 98 0.1 ENE 6 7 3 4 1012.1 1012.2 0.0
30/04:30am 8.2 6.4 7.9 98 0.1 E 7 11 4 6 1012.0 1012.1 0.0
30/04:00am 8.1 5.9 7.8 98 0.1 ENE 9 9 5 5 1012.1 1012.2 0.0
30/03:30am 8.3 7.8 8.0 98 0.1 CALM 0 0 0 0 1012.3 1012.4 0.0
30/03:00am 8.3 7.5 8.0 98 0.1 E 2 4 1 2 1012.4 1012.5 0.0
30/02:30am 7.9 6.6 7.6 98 0.1 E 4 6 2 3 1012.6 1012.7 0.0
30/02:00am 8.5 6.9 8.2 98 0.1 E 6 7 3 4 1012.7 1012.8 0.0
30/01:30am 8.6 7.1 8.3 98 0.1 E 6 7 3 4 1013.0 1013.1 0.0
30/01:00am 8.1 6.5 7.8 98 0.1 ESE 6 11 3 6 1013.2 1013.3 0.0
30/12:30am 8.5 6.8 8.2 98 0.1 E 7 9 4 5 1013.4 1013.5 0.0
30/12:00am 7.7 6.3 7.4 98 0.1 ESE 4 6 2 3 1013.7 1013.8 0.0
 
Date/Time
EST
Temp
°C
App
Temp
°C
Dew
Point
Rel
Hum
%
Delta-T
°C
Wind Press
QNH
hPa
Press
MSL
hPa
Rain
since 9 am
mm
Dir
 
Spd
km/h
Gust
km/h
Spd
kts
Gust
kts
29/11:30pm 8.5 6.9 8.2 98 0.1 ESE 6 7 3 4 1013.8 1013.9 0.0
29/11:00pm 8.7 7.6 8.4 98 0.1 SE 4 6 2 3 1014.2 1014.3 0.0
29/10:30pm 8.5 7.3 8.2 98 0.1 SE 4 6 2 3 1014.3 1014.4 0.0
29/10:00pm 9.0 8.0 8.7 98 0.1 SSE 4 6 2 3 1014.6 1014.7 0.0
29/09:30pm 9.3 8.7 8.8 97 0.2 S 2 4 1 2 1014.8 1014.9 0.0
29/09:00pm 10.2 9.3 9.3 94 0.5 SSE 4 4 2 2 1014.7 1014.8 0.0
29/08:30pm 10.4 10.3 9.6 95 0.4 CALM 0 0 0 0 1014.6 1014.7 0.0
29/08:00pm 12.0 12.0 9.9 87 1.1 CALM 0 0 0 0 1014.5 1014.6 0.0
29/07:30pm 13.8 13.1 10.2 79 1.9 NNE 4 6 2 3 1014.1 1014.2 0.0
29/07:00pm 15.0 14.3 10.2 73 2.5 N 4 4 2 2 1013.9 1014.0 0.0
29/06:30pm 16.6 16.4 9.1 61 3.9 CALM 0 2 0 1 1013.7 1013.8 0.0
29/06:00pm 18.6 17.2 8.8 53 5.1 NW 6 7 3 4 1013.7 1013.8 0.0
29/05:30pm 20.3 18.5 8.0 45 6.4 NW 7 11 4 6 1013.6 1013.7 0.0
29/05:00pm 21.2 18.9 7.4 41 7.1 NW 9 13 5 7 1013.6 1013.7 0.0
29/04:30pm 21.9 19.4 6.6 37 7.8 NW 9 17 5 9 1013.5 1013.6 0.0
29/04:00pm 21.6 18.6 5.9 36 7.9 NW 11 17 6 9 1013.7 1013.8 0.0
29/03:30pm 22.5 20.3 7.9 39 7.7 WNW 9 19 5 10 1013.7 1013.8 0.0
29/03:00pm 22.0 20.6 9.5 45 6.8 NW 7 17 4 9 1013.7 1013.8 0.0
29/02:30pm 21.6 20.3 9.8 47 6.4 NNW 7 13 4 7 1013.9 1014.0 0.0
29/02:00pm 21.3 19.6 9.9 48 6.2 N 9 15 5 8 1014.1 1014.2 0.0
29/01:30pm 21.0 19.4 8.9 46 6.4 N 7 17 4 9 1014.4 1014.5 0.0
29/01:00pm 20.8 18.6 9.4 48 6.1 N 11 17 6 9 1014.6 1014.7 0.0
29/12:30pm 20.7 20.1 10.5 52 5.6 SW 4 7 2 4 1015.0 1015.0 0.0
29/12:00pm 19.8 18.3 9.1 50 5.7 WSW 7 15 4 8 1015.3 1015.3 0.0
29/11:30am 19.1 17.3 8.1 49 5.7 WSW 7 13 4 7 1015.4 1015.4 0.0
29/11:00am 18.5 17.0 9.0 54 5.0 SW 7 13 4 7 1015.5 1015.5 0.0
29/10:30am 17.9 15.3 9.5 58 4.4 W 13 17 7 9 1015.6 1015.6 0.0
29/10:00am 17.5 14.7 9.9 61 4.0 WSW 15 22 8 12 1015.6 1015.6 0.0
29/09:30am 16.8 13.5 9.7 63 3.7 W 17 20 9 11 1015.6 1015.6 0.0
29/09:00am 15.6 12.3 9.7 68 3.1 WSW 17 24 9 13 1015.5 1015.5 0.0
29/08:30am 14.2 9.3 8.6 69 2.8 W 24 30 13 16 1015.4 1015.4 0.0
29/08:00am 13.2 9.2 8.1 71 2.5 W 19 26 10 14 1015.0 1015.0 0.0
29/07:30am 12.3 8.4 7.0 70 2.6 WSW 17 22 9 12 1014.6 1014.7 0.0
29/07:00am 11.4 8.1 6.5 72 2.3 WSW 13 17 7 9 1014.3 1014.4 0.0
29/06:30am 11.2 8.5 5.7 69 2.6 W 9 13 5 7 1013.8 1013.9 0.0
29/06:00am 10.9 7.7 5.2 68 2.6 W 11 17 6 9 1013.3 1013.4 0.0
29/05:30am 11.8 7.8 5.0 63 3.1 W 15 20 8 11 1013.1 1013.2 0.0
29/05:00am 11.7 7.7 4.7 62 3.2 W 15 19 8 10 1012.5 1012.6 0.0
29/04:30am 12.2 8.2 4.7 60 3.4 W 15 20 8 11 1012.1 1012.2 0.0
29/04:00am 13.7 9.4 5.1 56 4.0 W 17 22 9 12 1011.8 1011.9 0.0
29/03:30am 15.2 11.0 7.5 60 3.8 W 19 30 10 16 1011.5 1011.5 0.0
29/03:00am 16.0 12.0 8.2 60 4.0 W 19 24 10 13 1011.2 1011.2 0.0
29/02:30am 17.1 14.2 6.3 49 5.3 W 11 17 6 9 1010.8 1010.8 0.0
29/02:00am 17.6 14.2 5.9 46 5.8 NW 13 19 7 10 1010.8 1010.8 0.0
29/01:30am 17.9 13.7 5.8 45 5.9 NW 17 24 9 13 1010.8 1010.8 0.0
29/01:00am 15.7 11.9 7.7 59 4.0 N 17 20 9 11 1009.6 1009.6 0.0
29/12:30am 16.1 12.4 8.1 59 4.1 N 17 22 9 12 1009.5 1009.5 0.0
29/12:00am 17.1 12.9 7.5 53 4.9 N 19 26 10 14 1009.6 1009.6 0.0
 
Date/Time
EST
Temp
°C
App
Temp
°C
Dew
Point
Rel
Hum
%
Delta-T
°C
Wind Press
QNH
hPa
Press
MSL
hPa
Rain
since 9 am
mm
Dir
 
Spd
km/h
Gust
km/h
Spd
kts
Gust
kts
28/11:30pm 18.0 13.1 7.1 49 5.5 N 22 30 12 16 1009.7 1009.7 0.0
28/11:00pm 19.1 14.2 6.9 45 6.2 N 22 32 12 17 1010.0 1010.0 0.0
28/10:30pm 18.0 13.7 7.7 51 5.3 N 20 26 11 14 1010.2 1010.2 0.0
28/10:00pm 18.8 14.4 7.6 48 5.7 N 20 28 11 15 1010.5 1010.5 0.0
28/09:30pm 19.0 14.7 7.8 48 5.8 NNE 20 26 11 14 1010.7 1010.7 0.0
28/09:00pm 17.9 14.4 8.7 55 4.8 NNE 17 20 9 11 1010.9 1010.9 0.0
28/08:30pm 18.5 15.4 9.0 54 5.0 NNE 15 22 8 12 1010.9 1010.9 0.0
28/08:00pm 18.1 16.4 9.7 58 4.5 NE 9 13 5 7 1011.3 1011.3 0.0
28/07:30pm 17.8 16.1 9.7 59 4.3 NE 9 13 5 7 1011.2 1011.2 0.0
28/07:00pm 18.9 16.8 9.9 56 4.8 NE 11 17 6 9 1010.8 1010.8 0.0
28/06:30pm 19.4 17.7 9.9 54 5.1 NE 9 13 5 7 1010.7 1010.7 0.0
28/06:00pm 21.3 18.7 9.2 46 6.5 NNE 13 17 7 9 1010.6 1010.6 0.0
28/05:30pm 23.4 19.3 8.7 39 7.9 NNE 20 26 11 14 1010.3 1010.3 0.0
28/05:00pm 24.7 20.6 8.6 36 8.7 N 20 28 11 15 1011.0 1011.0 0.0
28/04:30pm 25.3 21.4 8.7 35 9.0 N 19 26 10 14 1011.6 1011.7 0.0
28/04:00pm 25.9 21.5 8.8 34 9.3 N 22 32 12 17 1011.9 1012.0 0.0
28/03:30pm 26.5 21.1 8.0 31 10.0 N 26 39 14 21 1012.3 1012.4 0.0
28/03:00pm 26.5 22.5 8.9 33 9.7 N 20 32 11 17 1012.6 1012.7 0.0
28/02:30pm 26.1 21.5 9.5 35 9.2 N 24 35 13 19 1012.8 1012.9 0.0
28/02:00pm 25.3 21.4 10.7 40 8.2 N 22 33 12 18 1012.8 1012.9 0.0
28/01:30pm 25.2 21.5 11.4 42 7.8 NNE 22 32 12 17 1013.4 1013.5 0.0
28/01:00pm 24.9 20.8 11.5 43 7.6 NNE 24 33 13 18 1014.2 1014.3 0.0
28/12:30pm 23.6 20.3 11.6 47 6.8 NNE 20 30 11 16 1014.8 1014.9 0.0
28/12:00pm 23.1 19.5 11.8 49 6.4 NNE 22 30 12 16 1015.9 1015.9 0.0
28/11:30am 22.4 19.3 12.1 52 5.8 NNE 20 32 11 17 1016.5 1016.5 0.0
28/11:00am 21.1 17.8 11.7 55 5.3 NNE 20 28 11 15 1017.4 1017.4 0.0
28/10:30am 19.9 16.0 10.9 56 4.9 NNE 22 28 12 15 1018.0 1018.0 0.0
28/10:00am 19.2 16.3 11.0 59 4.5 NNE 17 24 9 13 1018.7 1018.8 0.0
28/09:30am 18.2 14.8 10.6 61 4.1 NNE 19 28 10 15 1019.2 1019.3 0.0
28/09:00am 16.6 13.6 10.5 67 3.3 NE 17 24 9 13 1019.7 1019.8 0.0
28/08:30am 15.7 12.5 10.0 69 3.0 NE 17 24 9 13 1019.8 1019.9 0.0
28/08:00am 14.6 11.5 10.4 76 2.2 ENE 17 26 9 14 1019.8 1019.9 0.0

Other Formats:

Comma delimited format used in spreadsheet applications
http://www.bom.gov.au/fwo/IDN60801/IDN60801.94862.axf

JavaScript Object Notation format (JSON) in row-major order
http://www.bom.gov.au/fwo/IDN60801/IDN60801.94862.json